Time;durP1;ratioP1;P1;durP2;ratioP2;P2;SDS_P1;SDS_P2;PMS_P1;PMS_P2;Temp;Humidity;BMP_temperature;BMP_pressure;BME280_temperature;BME280_humidity;BME280_pressure;Samples;Min_cycle;Max_cycle;Signal;HPM_P1;HPM_P2
2022/04/28 00:01:42;;;;;;;3.65;2.70;;;;;;;4.04;54.38;99947.66;5021924;28;20056;-67
2022/04/28 00:04:07;;;;;;;4.28;2.70;;;;;;;4.03;54.04;99945.94;5017423;28;20760;-66
2022/04/28 00:06:32;;;;;;;4.72;2.25;;;;;;;3.98;53.28;99959.28;4966509;28;20067;-67
2022/04/28 00:08:57;;;;;;;5.18;2.85;;;;;;;3.93;53.44;99955.13;4998206;28;20033;-73
2022/04/28 00:11:22;;;;;;;4.05;2.08;;;;;;;3.89;53.23;99961.44;4998970;28;20055;-68
2022/04/28 00:13:46;;;;;;;2.67;2.17;;;;;;;3.84;53.17;99960.72;5017070;28;20052;-68
2022/04/28 00:16:11;;;;;;;2.60;2.22;;;;;;;3.78;53.17;99959.22;5016020;28;20578;-66
2022/04/28 00:18:36;;;;;;;5.35;2.55;;;;;;;3.71;53.04;99957.75;5016118;28;20041;-72
2022/04/28 00:21:00;;;;;;;5.25;2.35;;;;;;;3.62;52.58;99966.84;5016647;28;20466;-70
2022/04/28 00:23:25;;;;;;;5.28;4.22;;;;;;;3.54;53.17;99974.19;4998720;28;20040;-70
2022/04/28 00:25:50;;;;;;;4.20;2.72;;;;;;;3.48;53.74;99969.16;4981946;28;20108;-70
2022/04/28 00:28:20;;;;;;;3.72;2.50;;;;;;;3.44;53.59;99979.84;4998178;28;20040;-75
2022/04/28 00:30:45;;;;;;;8.82;2.80;;;;;;;3.40;53.44;99988.78;4982040;28;20396;-70
2022/04/28 00:33:09;;;;;;;5.82;3.03;;;;;;;3.35;53.72;99990.75;4981382;28;20037;-72
2022/04/28 00:35:34;;;;;;;5.88;3.80;;;;;;;3.27;54.12;99983.97;5016017;28;20072;-73
2022/04/28 00:38:00;;;;;;;2.63;2.13;;;;;;;3.25;54.22;99983.19;4998525;28;20132;-72
2022/04/28 00:40:24;;;;;;;6.13;3.38;;;;;;;3.21;54.01;99994.72;4998562;28;20125;-71
2022/04/28 00:42:49;;;;;;;5.13;3.67;;;;;;;3.17;54.26;99986.97;5015966;28;20124;-70
2022/04/28 00:45:14;;;;;;;5.28;3.40;;;;;;;3.13;54.68;99996.78;5016142;28;20491;-68
2022/04/28 00:50:41;;;;;;;5.38;3.80;;;;;;;3.06;55.32;99995.25;4969575;28;20045;-69
2022/04/28 00:53:09;;;;;;;9.02;4.00;;;;;;;3.03;56.20;100003.31;4976758;28;20034;-71
2022/04/28 00:55:35;;;;;;;5.57;3.42;;;;;;;2.99;56.08;100001.69;4993261;28;20045;-71
2022/04/28 00:57:59;;;;;;;6.78;3.55;;;;;;;2.95;55.71;100000.06;4992390;28;20041;-65
2022/04/28 01:00:25;;;;;;;5.30;3.63;;;;;;;2.92;56.37;100000.19;4998488;28;20045;-72
2022/04/28 01:02:50;;;;;;;5.53;2.97;;;;;;;2.87;56.79;100007.38;4962335;28;20038;-72
2022/04/28 01:05:15;;;;;;;7.05;3.58;;;;;;;2.84;57.06;100003.06;4946198;28;20524;-73
2022/04/28 01:07:41;;;;;;;5.82;3.63;;;;;;;2.82;56.98;100004.88;4962387;28;20452;-72
2022/04/28 01:10:06;;;;;;;8.63;4.65;;;;;;;2.80;57.21;100019.03;4968586;28;20045;-73
2022/04/28 01:12:32;;;;;;;5.95;3.88;;;;;;;2.78;57.73;100023.47;4994485;28;20041;-66
2022/04/28 01:14:58;;;;;;;4.22;3.38;;;;;;;2.76;57.50;100013.00;4976531;28;20133;-66
2022/04/28 01:17:24;;;;;;;7.88;4.85;;;;;;;2.75;57.69;100023.56;4991165;28;20037;-64
2022/04/28 01:20:01;;;;;;;5.70;3.90;;;;;;;2.72;57.83;100015.78;4963085;28;20037;-67
2022/04/28 01:22:28;;;;;;;8.65;4.88;;;;;;;2.73;57.32;100022.75;4980774;28;20048;-67
2022/04/28 01:24:54;;;;;;;5.70;3.75;;;;;;;2.73;57.82;100031.53;4990877;28;20102;-65
2022/04/28 01:27:20;;;;;;;6.30;3.58;;;;;;;2.71;57.77;100032.50;4975200;28;20038;-65
2022/04/28 01:29:45;;;;;;;7.07;3.88;;;;;;;2.73;57.72;100033.28;4976798;28;20045;-64
2022/04/28 01:32:09;;;;;;;7.57;3.85;;;;;;;2.74;57.35;100035.00;4960722;28;20084;-64
2022/04/28 01:34:39;;;;;;;6.22;3.90;;;;;;;2.82;56.78;100033.00;4977074;28;20040;-66
2022/04/28 01:37:06;;;;;;;6.82;3.35;;;;;;;2.92;56.23;100031.78;4976802;28;20558;-65
2022/04/28 01:39:31;;;;;;;8.45;4.10;;;;;;;2.99;55.70;100033.28;4992941;28;20519;-67
2022/04/28 01:41:56;;;;;;;5.20;3.17;;;;;;;3.03;55.36;100039.31;4959379;28;20033;-66
2022/04/28 01:44:21;;;;;;;5.75;3.13;;;;;;;3.07;55.64;100046.16;4992905;28;20052;-65
2022/04/28 01:46:45;;;;;;;7.70;3.45;;;;;;;3.08;55.49;100035.59;4994324;28;20120;-66
2022/04/28 01:49:49;;;;;;;4.47;3.10;;;;;;;3.13;55.10;100051.25;4912417;28;20134;-66
2022/04/28 01:55:39;;;;;;;6.50;3.40;;;;;;;3.18;55.17;100052.78;4891581;29;20171;-65
2022/04/28 01:58:29;;;;;;;6.63;3.72;;;;;;;3.22;54.87;100054.41;4895456;29;20124;-65
2022/04/28 02:01:26;;;;;;;7.68;5.15;;;;;;;3.30;55.06;100054.13;4894331;29;20076;-65
2022/04/28 02:03:52;;;;;;;8.25;4.80;;;;;;;3.35;54.99;100061.88;4895210;29;20039;-64
2022/04/28 02:06:19;;;;;;;6.43;3.90;;;;;;;3.39;54.81;100055.56;4895143;29;20134;-65
2022/04/28 02:08:45;;;;;;;4.78;3.47;;;;;;;3.38;54.85;100056.53;4895305;29;20153;-65
2022/04/28 02:11:12;;;;;;;6.72;4.15;;;;;;;3.35;54.66;100057.47;4875050;29;20047;-72
2022/04/28 02:14:02;;;;;;;7.65;4.45;;;;;;;3.30;55.08;100069.94;4897673;29;20133;-73
2022/04/28 02:16:47;;;;;;;8.63;4.50;;;;;;;3.24;54.84;100067.53;4897056;29;20938;-73
2022/04/28 02:19:22;;;;;;;4.78;3.33;;;;;;;3.21;54.31;100055.31;4898634;29;20043;-74
2022/04/28 02:21:47;;;;;;;9.27;3.67;;;;;;;3.18;53.89;100051.94;4963221;28;20053;-72
2022/04/28 02:24:12;;;;;;;3.97;3.22;;;;;;;3.19;53.68;100056.28;4996304;28;20060;-72
2022/04/28 02:26:37;;;;;;;8.27;3.30;;;;;;;3.16;53.53;100059.88;4996825;28;20051;-73
2022/04/28 02:29:02;;;;;;;6.65;3.47;;;;;;;3.16;52.57;100059.88;4978795;28;20049;-73
2022/04/28 02:31:32;;;;;;;5.20;3.30;;;;;;;3.20;52.61;100063.28;4961741;28;20045;-74
2022/04/28 02:33:57;;;;;;;11.80;3.33;;;;;;;3.23;51.84;100064.03;4977546;28;20045;-72
2022/04/28 02:36:31;;;;;;;;;;;;;;;3.41;52.46;100065.16;4963500;28;20049;-72
2022/04/28 02:38:56;;;;;;;;;;;;;;;3.50;52.22;100062.19;4962701;28;19929;-72
2022/04/28 02:41:21;;;;;;;4.53;2.85;;;;;;;3.44;50.85;100075.59;4977860;28;20026;-71
2022/04/28 02:43:49;;;;;;;6.35;3.40;;;;;;;3.45;50.63;100073.81;4978006;28;20064;-69
2022/04/28 02:46:14;;;;;;;10.45;2.83;;;;;;;3.44;49.84;100070.31;4961589;28;20055;-72
2022/04/28 02:48:52;;;;;;;4.97;3.05;;;;;;;3.51;49.70;100084.13;5005058;28;20057;-72
2022/04/28 02:51:17;;;;;;;7.47;2.63;;;;;;;3.56;49.52;100082.22;4997258;28;20076;-73
2022/04/28 02:53:43;;;;;;;5.20;2.78;;;;;;;3.63;48.59;100086.34;5017478;28;20132;-72
2022/04/28 02:56:08;;;;;;;5.43;1.80;;;;;;;3.72;47.36;100088.66;5001455;28;20202;-72
2022/04/28 02:58:36;;;;;;;3.65;2.38;;;;;;;3.81;46.69;100095.38;5002043;28;20135;-74
2022/04/28 03:01:04;;;;;;;5.80;2.55;;;;;;;3.89;46.75;100101.22;5000757;28;20080;-73
2022/04/28 03:03:31;;;;;;;3.67;2.70;;;;;;;3.99;46.16;100097.31;4999740;28;20056;-75
2022/04/28 03:11:23;;;;;;;3.40;2.20;;;;;;;4.24;44.60;100095.47;5018573;28;20925;-72
2022/04/28 03:13:48;;;;;;;3.60;2.60;;;;;;;4.29;44.48;100108.47;4983315;28;20415;-74
2022/04/28 03:16:13;;;;;;;2.80;2.30;;;;;;;4.36;43.83;100104.69;4981076;28;20453;-73
2022/04/28 03:18:52;;;;;;;4.68;2.35;;;;;;;4.43;43.74;100110.59;4975973;28;20060;-76
2022/04/28 03:21:16;;;;;;;3.72;2.92;;;;;;;4.53;43.66;100127.78;4975609;28;20041;-75
2022/04/28 03:23:41;;;;;;;4.22;2.95;;;;;;;4.68;43.63;100116.63;4943735;28;20046;-75
2022/04/28 03:26:09;;;;;;;5.95;2.85;;;;;;;4.80;42.77;100118.78;4960010;28;20125;-76
2022/04/28 03:28:35;;;;;;;2.72;2.40;;;;;;;4.85;42.58;100118.59;4973347;28;20085;-77
2022/04/28 03:31:01;;;;;;;4.93;2.78;;;;;;;4.82;42.14;100132.78;4973305;28;20505;-75
2022/04/28 03:33:31;;;;;;;6.55;2.80;;;;;;;4.79;42.28;100124.97;4975750;28;20254;-76
2022/04/28 03:35:56;;;;;;;3.83;2.50;;;;;;;4.78;42.72;100130.31;4976284;28;20087;-76
2022/04/28 03:38:21;;;;;;;4.25;2.45;;;;;;;4.85;42.60;100131.81;4977687;28;20065;-75
2022/04/28 03:40:46;;;;;;;4.85;2.50;;;;;;;4.88;42.36;100131.66;4945857;28;20120;-77
2022/04/28 03:43:11;;;;;;;2.67;2.38;;;;;;;4.86;42.65;100147.56;4976793;28;20104;-79
2022/04/28 03:45:37;;;;;;;5.97;2.28;;;;;;;4.84;42.40;100140.66;4960826;28;20042;-75
2022/04/28 03:48:09;;;;;;;1.60;1.45;;;;;;;4.87;42.88;100145.78;4968772;28;20194;-75
2022/04/28 03:50:34;;;;;;;5.35;2.58;;;;;;;4.89;42.77;100152.75;4958642;28;20065;-77
2022/04/28 03:52:59;;;;;;;2.65;2.45;;;;;;;4.95;41.97;100151.66;4975883;28;20053;-76
2022/04/28 03:55:25;;;;;;;4.10;2.35;;;;;;;5.07;41.44;100153.81;4976584;28;20049;-77
2022/04/28 03:57:50;;;;;;;3.63;2.15;;;;;;;5.18;41.78;100156.88;4976506;28;20193;-73
2022/04/28 04:00:15;;;;;;;4.28;2.78;;;;;;;5.29;41.66;100172.28;4981149;28;20053;-73
2022/04/28 04:02:50;;;;;;;3.42;1.88;;;;;;;5.46;41.82;100165.34;4993389;28;20048;-73
2022/04/28 04:05:16;;;;;;;4.20;2.40;;;;;;;5.68;41.33;100170.56;4965767;28;20061;-76
2022/04/28 04:07:42;;;;;;;3.55;2.67;;;;;;;5.86;40.78;100168.06;5000395;28;20045;-76
2022/04/28 04:10:20;;;;;;;8.65;3.50;;;;;;;5.99;40.27;100179.84;5015399;28;20048;-76
2022/04/28 04:12:48;;;;;;;7.18;3.10;;;;;;;6.04;40.41;100188.47;4983272;28;20503;-78
2022/04/28 04:15:13;;;;;;;6.40;2.97;;;;;;;6.05;40.57;100179.59;5001560;28;20501;-76
2022/04/28 04:17:57;;;;;;;3.05;2.45;;;;;;;5.99;40.03;100188.66;5001278;28;20519;-77
2022/04/28 04:20:33;;;;;;;4.43;2.85;;;;;;;5.96;40.84;100196.75;5000640;28;20103;-78
2022/04/28 04:22:59;;;;;;;6.63;2.17;;;;;;;5.91;40.75;100188.13;4996779;28;20113;-75
2022/04/28 04:25:24;;;;;;;4.30;2.60;;;;;;;5.99;41.05;100190.44;4997175;28;20041;-76
2022/04/28 04:27:52;;;;;;;5.30;3.00;;;;;;;6.29;40.32;100191.72;5016659;28;20038;-75
2022/04/28 04:33:21;;;;;;;7.13;3.05;;;;;;;7.23;38.61;100189.88;4997198;28;20045;-76
2022/04/28 04:35:46;;;;;;;5.40;2.30;;;;;;;7.67;37.59;100192.16;4980770;28;20128;-74
2022/04/28 04:38:11;;;;;;;4.00;2.60;;;;;;;8.10;37.48;100198.75;4980224;28;20199;-75
2022/04/28 04:40:36;;;;;;;3.25;2.65;;;;;;;8.57;35.80;100192.72;4996401;28;20124;-75
2022/04/28 04:43:02;;;;;;;8.52;3.15;;;;;;;9.09;35.58;100193.34;4995705;28;20049;-75
2022/04/28 04:45:28;;;;;;;3.70;2.20;;;;;;;9.55;34.32;100199.53;4996262;28;20037;-75
2022/04/28 04:48:05;;;;;;;4.10;2.85;;;;;;;9.91;34.06;100198.31;4988307;28;20061;-77
2022/04/28 04:50:40;;;;;;;6.78;3.55;;;;;;;10.15;33.78;100192.38;4959785;28;20041;-75
2022/04/28 04:53:08;;;;;;;11.07;3.20;;;;;;;10.33;32.79;100209.06;4959610;28;20057;-74
2022/04/28 04:55:36;;;;;;;4.28;2.95;;;;;;;10.55;32.03;100197.91;4977578;28;20056;-74
2022/04/28 04:58:04;;;;;;;5.95;2.78;;;;;;;10.76;31.71;100201.03;4975939;28;20087;-74
2022/04/28 05:00:29;;;;;;;8.32;3.10;;;;;;;10.75;31.27;100210.00;4959962;28;20056;-74
2022/04/28 05:03:13;;;;;;;6.78;3.40;;;;;;;10.80;32.22;100208.75;4963095;28;20038;-74
2022/04/28 05:06:07;;;;;;;9.05;3.00;;;;;;;11.06;31.52;100203.59;4924147;28;20085;-75
2022/04/28 05:08:37;;;;;;;4.60;2.88;;;;;;;11.47;31.44;100214.22;4937007;28;20070;-75
2022/04/28 05:11:07;;;;;;;5.93;2.58;;;;;;;11.95;30.62;100210.97;4936014;28;20058;-74
2022/04/28 05:13:34;;;;;;;6.10;3.03;;;;;;;12.41;29.80;100212.28;4936359;28;20050;-76
2022/04/28 05:16:02;;;;;;;6.25;2.80;;;;;;;12.80;29.04;100222.81;4902410;28;20058;-74
2022/04/28 05:18:56;;;;;;;9.30;3.63;;;;;;;13.14;28.39;100207.00;4878528;29;20393;-75
2022/04/28 05:21:55;;;;;;;5.57;3.25;;;;;;;13.26;28.25;100215.03;4860465;29;20074;-74
2022/04/28 05:24:38;;;;;;;17.02;6.70;;;;;;;13.22;28.82;100223.38;4860180;29;20052;-75
2022/04/28 05:27:22;;;;;;;5.68;3.22;;;;;;;13.29;28.74;100214.81;4859630;29;20045;-73
2022/04/28 05:29:49;;;;;;;6.15;2.63;;;;;;;13.47;28.37;100220.63;4844589;29;20211;-76
2022/04/28 05:32:33;;;;;;;5.88;3.47;;;;;;;13.62;27.34;100219.47;4844411;29;20175;-73
2022/04/28 05:35:04;;;;;;;6.00;2.88;;;;;;;13.78;28.08;100219.16;4860183;29;20067;-74
2022/04/28 05:37:29;;;;;;;5.07;2.97;;;;;;;14.03;27.81;100221.69;4860266;29;20423;-77
2022/04/28 05:39:53;;;;;;;7.07;2.72;;;;;;;14.26;27.16;100221.75;4844935;29;20445;-78
2022/04/28 05:42:18;;;;;;;3.10;2.63;;;;;;;14.54;26.86;100221.34;4855752;29;20593;-78
2022/04/28 05:47:29;;;;;;;;;;;;;;;15.14;28.32;100225.47;4862865;29;20048;-74
2022/04/28 05:49:54;;;;;;;3.00;2.47;;;;;;;15.69;25.92;100213.75;4865130;29;19919;-77
2022/04/28 05:52:21;;;;;;;2.70;2.10;;;;;;;16.23;24.52;100219.00;4862307;29;20040;-76
2022/04/28 05:54:48;;;;;;;5.35;2.92;;;;;;;16.89;24.30;100205.19;4873608;29;20059;-75
2022/04/28 05:57:13;;;;;;;4.30;2.90;;;;;;;17.19;23.23;100201.59;4947441;28;20054;-75
2022/04/28 05:59:39;;;;;;;7.97;3.22;;;;;;;17.16;23.03;100197.31;4978920;28;20049;-76
2022/04/28 06:02:23;;;;;;;4.30;2.90;;;;;;;17.55;22.21;100198.25;4994896;28;20049;-76
2022/04/28 06:04:48;;;;;;;8.77;4.90;;;;;;;18.03;22.48;100201.00;4978478;28;20068;-78
2022/04/28 06:07:13;;;;;;;11.10;7.18;;;;;;;17.37;22.07;100200.81;4995074;28;20049;-75
2022/04/28 06:09:46;;;;;;;13.60;7.28;;;;;;;17.19;22.28;100206.97;4978607;28;20439;-77
2022/04/28 06:12:12;;;;;;;8.77;6.78;;;;;;;17.28;21.94;100201.59;4979364;28;20128;-76
2022/04/28 06:14:57;;;;;;;;;;;;;;;17.82;23.66;100212.94;4955387;28;20081;-77
2022/04/28 06:17:42;;;;;;;4.22;3.60;;;;;;;18.65;20.75;100214.94;4925999;28;19924;-76
2022/04/28 06:20:08;;;;;;;7.85;4.00;;;;;;;19.24;19.14;100214.53;4938665;28;20057;-76
2022/04/28 06:22:55;;;;;;;6.70;3.50;;;;;;;20.03;18.17;100222.81;4955308;28;20057;-75
2022/04/28 06:25:23;;;;;;;5.90;4.07;;;;;;;21.01;17.95;100224.34;4940444;28;20046;-75
2022/04/28 06:27:48;;;;;;;7.03;4.25;;;;;;;21.88;17.09;100228.53;4923020;28;20125;-75
2022/04/28 06:30:13;;;;;;;3.83;3.35;;;;;;;22.65;16.55;100227.16;4922766;28;20141;-76
2022/04/28 06:32:38;;;;;;;15.82;3.17;;;;;;;22.96;15.63;100238.16;4940516;28;20459;-75
2022/04/28 06:35:37;;;;;;;7.40;3.78;;;;;;;22.32;16.31;100234.53;4940559;28;20077;-77
2022/04/28 06:38:02;;;;;;;6.30;2.83;;;;;;;22.36;15.88;100236.72;4939363;28;20525;-76
2022/04/28 06:40:28;;;;;;;4.65;2.90;;;;;;;22.47;16.08;100232.78;4938314;28;20391;-76
2022/04/28 06:42:53;;;;;;;6.22;3.55;;;;;;;22.36;15.91;100235.84;4925534;28;20541;-74
2022/04/28 06:45:19;;;;;;;8.05;3.80;;;;;;;22.15;15.42;100244.53;4954918;28;20058;-75
2022/04/28 06:48:02;;;;;;;5.60;3.03;;;;;;;22.42;15.58;100235.19;4938658;28;20169;-75
2022/04/28 06:50:39;;;;;;;6.70;3.40;;;;;;;23.02;15.61;100242.91;4962780;28;20655;-76
2022/04/28 06:53:22;;;;;;;4.80;3.33;;;;;;;23.62;15.06;100229.56;5006156;28;20041;-74
2022/04/28 06:55:51;;;;;;;6.93;4.32;;;;;;;23.94;14.42;100231.19;4977434;28;20056;-73
2022/04/28 06:58:16;;;;;;;7.78;3.40;;;;;;;24.34;14.31;100232.81;4993787;28;20099;-74
2022/04/28 07:00:41;;;;;;;3.28;2.85;;;;;;;24.79;13.62;100226.38;4993695;28;20045;-73
2022/04/28 07:03:07;;;;;;;9.10;4.43;;;;;;;25.49;13.68;100225.06;4993818;28;20037;-70
2022/04/28 07:05:33;;;;;;;9.75;3.15;;;;;;;25.80;12.96;100219.34;4994499;28;20057;-72
2022/04/28 07:08:00;;;;;;;4.70;3.03;;;;;;;26.06;12.76;100226.97;4995068;28;20064;-75
2022/04/28 07:10:30;;;;;;;5.93;3.20;;;;;;;26.03;12.64;100226.31;4994022;28;20042;-76
2022/04/28 07:12:55;;;;;;;4.30;3.03;;;;;;;26.20;12.32;100221.41;4993845;28;20053;-76
2022/04/28 07:15:40;;;;;;;2.92;2.63;;;;;;;26.09;12.38;100232.88;4954169;28;20069;-76
2022/04/28 07:18:23;;;;;;;4.72;3.40;;;;;;;26.29;11.88;100228.47;4953928;28;20416;-76
2022/04/28 07:20:51;;;;;;;3.75;3.05;;;;;;;26.68;12.07;100240.75;4937529;28;20053;-77
2022/04/28 07:23:16;;;;;;;5.40;3.20;;;;;;;27.34;11.56;100236.56;4921335;28;20042;-75
2022/04/28 07:25:41;;;;;;;4.57;3.67;;;;;;;27.95;11.25;100236.59;4953672;28;20046;-72
2022/04/28 07:28:06;;;;;;;8.13;3.60;;;;;;;28.53;11.28;100239.63;4937803;28;20061;-73
2022/04/28 07:31:01;;;;;;;4.63;3.05;;;;;;;28.86;10.73;100243.19;4877711;29;20116;-73
2022/04/28 07:33:45;;;;;;;3.33;3.03;;;;;;;29.08;10.63;100243.78;4877793;29;20060;-73
2022/04/28 07:36:30;;;;;;;8.13;3.83;;;;;;;29.44;10.58;100243.28;4859241;29;20109;-72
2022/04/28 07:39:13;;;;;;;3.70;3.33;;;;;;;29.99;9.90;100256.56;4858794;29;20060;-72
2022/04/28 07:41:58;;;;;;;5.85;3.60;;;;;;;30.21;10.01;100249.63;4854021;29;20088;-73
2022/04/28 07:44:23;;;;;;;4.82;3.05;;;;;;;30.22;9.48;100263.16;4883451;29;20071;-73
2022/04/28 07:46:48;;;;;;;5.53;3.92;;;;;;;30.28;9.67;100254.00;4864480;29;20057;-73
2022/04/28 07:49:14;;;;;;;4.07;3.70;;;;;;;30.84;9.62;100266.91;4846693;29;20116;-73
2022/04/28 07:51:39;;;;;;;3.75;3.42;;;;;;;31.32;9.26;100256.03;4847161;29;20044;-74
2022/04/28 07:54:04;;;;;;;5.97;3.55;;;;;;;31.57;9.13;100255.13;4862030;29;20540;-73
2022/04/28 07:56:29;;;;;;;8.70;3.42;;;;;;;31.76;9.14;100254.03;4878578;29;20044;-73
2022/04/28 07:58:54;;;;;;;5.88;4.03;;;;;;;31.21;8.93;100259.56;4862272;29;20051;-73
2022/04/28 08:01:52;;;;;;;3.30;2.97;;;;;;;29.83;9.61;100247.72;4934969;28;20051;-72
2022/04/28 08:04:18;;;;;;;7.53;3.42;;;;;;;28.05;9.68;100250.72;4918378;29;20122;-73
2022/04/28 08:06:51;;;;;;;6.82;3.85;;;;;;;27.00;11.13;100237.44;4937372;28;20146;-73
2022/04/28 08:09:16;;;;;;;3.97;3.40;;;;;;;27.39;10.88;100234.06;4965265;28;20133;-72
2022/04/28 08:11:42;;;;;;;5.00;3.50;;;;;;;28.53;10.10;100236.88;4953482;28;20058;-73
2022/04/28 08:14:08;;;;;;;6.95;3.50;;;;;;;29.16;10.12;100238.06;4962765;28;20479;-72
2022/04/28 08:16:32;;;;;;;5.80;3.40;;;;;;;28.22;9.95;100237.47;5011949;28;20045;-72
2022/04/28 08:18:57;;;;;;;4.65;3.08;;;;;;;27.35;10.44;100242.88;4994740;28;20099;-75
2022/04/28 08:21:48;;;;;;;5.18;3.30;;;;;;;27.44;10.78;100242.50;4979946;28;20096;-74
2022/04/28 08:24:14;;;;;;;4.25;3.35;;;;;;;28.22;10.16;100245.69;5004808;28;20053;-74
2022/04/28 08:26:43;;;;;;;3.25;2.95;;;;;;;29.15;9.44;100241.84;5006761;28;20033;-72
2022/04/28 08:29:08;;;;;;;3.47;3.08;;;;;;;28.37;10.31;100242.78;5006265;28;20555;-72
2022/04/28 08:31:37;;;;;;;3.97;3.30;;;;;;;26.43;11.06;100234.88;4998768;28;20498;-75
2022/04/28 08:34:03;;;;;;;4.85;3.25;;;;;;;24.88;11.69;100235.31;4997732;28;20053;-73
2022/04/28 08:36:31;;;;;;;3.85;3.40;;;;;;;23.51;12.34;100233.53;4963652;28;20410;-74
2022/04/28 08:39:03;;;;;;;5.47;3.22;;;;;;;22.35;13.06;100234.16;4996896;28;20049;-75
2022/04/28 08:41:37;;;;;;;4.65;2.88;;;;;;;21.45;13.73;100235.03;4980283;28;20041;-75
2022/04/28 08:44:22;;;;;;;4.00;3.00;;;;;;;20.64;13.91;100227.38;4996646;28;20132;-76
2022/04/28 08:46:54;;;;;;;3.20;2.90;;;;;;;21.51;13.42;100232.53;4980301;28;20053;-77
2022/04/28 08:49:27;;;;;;;4.65;3.47;;;;;;;23.59;12.63;100232.63;4944146;28;20101;-76
2022/04/28 08:52:16;;;;;;;4.22;3.15;;;;;;;25.28;11.47;100239.50;4938100;28;20085;-73
2022/04/28 08:54:45;;;;;;;4.43;2.88;;;;;;;25.17;11.34;100231.78;4939271;28;20059;-71
2022/04/28 08:57:12;;;;;;;10.80;4.15;;;;;;;25.03;11.62;100219.00;4955365;28;20082;-73
2022/04/28 08:59:38;;;;;;;3.58;3.15;;;;;;;26.42;11.25;100222.25;4938210;28;20157;-73
2022/04/28 09:02:03;;;;;;;4.28;3.53;;;;;;;28.08;10.22;100222.06;4953497;28;20133;-72
2022/04/28 09:04:47;;;;;;;4.40;4.00;;;;;;;29.48;9.49;100222.53;4936502;28;20058;-74
2022/04/28 09:07:33;;;;;;;6.55;3.67;;;;;;;30.65;9.07;100229.41;4938281;28;20058;-72
2022/04/28 09:10:31;;;;;;;3.97;3.50;;;;;;;31.30;8.43;100233.38;4936660;28;20078;-73
2022/04/28 09:16:02;;;;;;;4.65;3.13;;;;;;;28.81;9.71;100223.78;4930320;28;20118;-71
2022/04/28 09:18:27;;;;;;;6.93;3.63;;;;;;;27.93;10.04;100221.38;4950117;28;20506;-76
2022/04/28 09:20:52;;;;;;;7.28;4.18;;;;;;;28.96;9.65;100214.47;4936437;28;20042;-75
2022/04/28 09:23:18;;;;;;;8.30;4.15;;;;;;;30.57;9.76;100227.78;4936164;28;20577;-76
2022/04/28 09:25:46;;;;;;;10.82;4.60;;;;;;;31.34;8.23;100228.25;4953357;28;20070;-75
2022/04/28 09:28:12;;;;;;;6.20;3.92;;;;;;;31.53;8.32;100227.16;4954413;28;20066;-76
2022/04/28 09:30:42;;;;;;;4.35;3.78;;;;;;;31.27;7.81;100228.31;4958961;28;20076;-75
2022/04/28 09:33:28;;;;;;;4.50;3.90;;;;;;;30.35;8.63;100225.63;4975773;28;20464;-73
2022/04/28 09:36:01;;;;;;;5.72;4.18;;;;;;;28.43;8.97;100217.25;4977479;28;20082;-73
2022/04/28 09:38:56;;;;;;;4.30;3.70;;;;;;;26.84;9.79;100226.78;4960259;28;20052;-75
2022/04/28 09:44:12;;;;;;;6.05;4.10;;;;;;;25.80;10.78;100213.88;4987488;28;20085;-75
2022/04/28 09:46:43;;;;;;;5.05;3.67;;;;;;;27.50;10.25;100216.19;4976721;28;20099;-76
2022/04/28 09:49:12;;;;;;;5.07;3.60;;;;;;;29.61;9.70;100213.38;4976272;28;20049;-75
2022/04/28 09:51:59;;;;;;;4.97;3.90;;;;;;;31.55;8.52;100222.25;4996576;28;20071;-74
2022/04/28 09:54:36;;;;;;;9.85;4.70;;;;;;;33.04;7.93;100223.94;4979498;28;20045;-75
2022/04/28 09:57:04;;;;;;;6.20;4.30;;;;;;;32.79;7.78;100238.00;4978023;28;20037;-75
2022/04/28 09:59:30;;;;;;;7.40;3.58;;;;;;;31.16;8.14;100229.09;4996141;28;20049;-75
2022/04/28 10:01:58;;;;;;;6.60;4.38;;;;;;;30.09;8.68;100221.16;4978076;28;20045;-75
2022/04/28 10:04:24;;;;;;;4.60;4.20;;;;;;;30.97;8.93;100222.72;4994251;28;20079;-75
2022/04/28 10:07:09;;;;;;;7.32;4.55;;;;;;;33.01;8.30;100223.59;4995065;28;20052;-74
2022/04/28 10:09:37;;;;;;;6.07;4.43;;;;;;;33.70;7.98;100227.28;4978081;28;20645;-75
2022/04/28 10:12:07;;;;;;;4.22;3.83;;;;;;;32.76;7.43;100223.84;4961488;28;20052;-73
2022/04/28 10:14:49;;;;;;;5.85;3.67;;;;;;;31.00;9.23;100224.19;4978807;28;20098;-77
2022/04/28 10:17:25;;;;;;;5.70;4.32;;;;;;;28.98;9.31;100226.06;4995092;28;20464;-74
2022/04/28 10:20:10;;;;;;;4.53;3.97;;;;;;;27.09;10.47;100225.25;4996286;28;20504;-73
2022/04/28 10:22:47;;;;;;;5.40;3.95;;;;;;;24.62;11.59;100227.56;4994387;28;20491;-74
2022/04/28 10:34:15;;;;;;;6.45;3.72;;;;;;;18.17;15.65;100218.59;4997582;28;20051;-74
2022/04/28 10:37:06;;;;;;;4.53;3.33;;;;;;;18.00;15.69;100220.16;4994555;28;20508;-74
2022/04/28 10:39:43;;;;;;;4.05;3.20;;;;;;;17.44;15.64;100206.47;4992394;28;20049;-75
2022/04/28 10:42:20;;;;;;;4.38;3.20;;;;;;;16.78;16.42;100208.00;4995597;28;20056;-75
2022/04/28 10:44:55;;;;;;;7.57;4.20;;;;;;;16.79;16.46;100213.25;4994659;28;20046;-73
2022/04/28 10:47:34;;;;;;;4.53;3.03;;;;;;;16.52;16.65;100207.53;4993555;28;20030;-74
2022/04/28 10:49:58;;;;;;;4.10;2.95;;;;;;;16.13;16.62;100215.41;4958807;28;20045;-73
2022/04/28 10:52:25;;;;;;;7.18;3.60;;;;;;;15.76;17.52;100211.41;4974814;28;20057;-72
2022/04/28 10:54:58;;;;;;;7.80;3.42;;;;;;;15.73;17.12;100204.44;4958471;28;20390;-74
2022/04/28 10:57:36;;;;;;;7.30;3.28;;;;;;;15.96;18.31;100218.66;4959908;28;20038;-72
2022/04/28 11:00:03;;;;;;;5.90;3.33;;;;;;;15.94;17.51;100212.53;4943123;28;20371;-73
2022/04/28 11:02:28;;;;;;;3.88;2.85;;;;;;;16.16;17.98;100207.03;4963639;28;20042;-73
2022/04/28 11:05:06;;;;;;;4.90;2.97;;;;;;;16.36;17.66;100205.34;4943744;28;20060;-72
2022/04/28 11:07:32;;;;;;;3.60;2.60;;;;;;;16.26;17.72;100207.09;4975601;28;20108;-71
2022/04/28 11:10:02;;;;;;;5.38;2.85;;;;;;;15.95;17.90;100196.28;4982725;28;20053;-72
2022/04/28 11:12:37;;;;;;;6.20;2.95;;;;;;;15.83;18.08;100196.47;4964672;28;20042;-73
2022/04/28 11:15:14;;;;;;;5.73;3.67;;;;;;;15.37;17.62;100191.34;4967138;28;20038;-77
2022/04/28 11:17:44;;;;;;;7.88;3.47;;;;;;;14.75;19.36;100195.50;4969297;28;20413;-74
2022/04/28 11:20:18;;;;;;;7.47;3.22;;;;;;;14.27;19.39;100196.66;4983677;28;20041;-72
2022/04/28 11:22:58;;;;;;;5.18;3.33;;;;;;;13.70;20.01;100200.13;4966943;28;20045;-77
2022/04/28 11:25:22;;;;;;;5.57;2.95;;;;;;;13.33;21.41;100192.16;4963605;28;20048;-75
2022/04/28 11:27:50;;;;;;;5.47;3.30;;;;;;;13.13;21.11;100203.47;4961579;28;20050;-72
2022/04/28 11:30:22;;;;;;;6.13;3.38;;;;;;;12.94;20.91;100195.94;4962007;28;20038;-72
2022/04/28 11:32:51;;;;;;;5.75;2.75;;;;;;;12.79;20.46;100194.34;4983377;28;20073;-76
2022/04/28 11:35:17;;;;;;;4.47;2.97;;;;;;;12.69;20.56;100190.63;4983107;28;20046;-75
2022/04/28 11:37:41;;;;;;;7.50;3.85;;;;;;;12.69;21.38;100186.13;4979251;28;20416;-75
2022/04/28 11:40:12;;;;;;;6.47;3.30;;;;;;;12.79;21.14;100188.16;4978900;28;20416;-77
2022/04/28 11:42:37;;;;;;;6.38;3.22;;;;;;;12.66;20.96;100185.50;4961779;28;20056;-75
2022/04/28 11:45:02;;;;;;;8.48;3.53;;;;;;;12.61;22.02;100183.16;4969906;28;20041;-74
2022/04/28 11:51:10;;;;;;;10.13;4.07;;;;;;;12.81;21.79;100173.69;4964081;28;20460;-75
2022/04/28 11:53:39;;;;;;;8.52;3.72;;;;;;;12.72;20.72;100164.53;4982166;28;20924;-75
2022/04/28 11:56:14;;;;;;;5.13;3.60;;;;;;;12.36;21.52;100165.31;4982505;28;20054;-73
2022/04/28 11:58:39;;;;;;;3.17;2.67;;;;;;;12.07;21.83;100165.66;4980534;28;20038;-71
2022/04/28 12:01:03;;;;;;;4.53;3.55;;;;;;;12.11;21.68;100167.13;4981170;28;20048;-73
2022/04/28 12:03:30;;;;;;;8.35;3.17;;;;;;;12.13;22.06;100157.19;4979864;28;20042;-77
2022/04/28 12:05:56;;;;;;;4.72;3.13;;;;;;;12.16;22.12;100157.00;4980424;28;20092;-77
2022/04/28 12:08:22;;;;;;;6.63;3.92;;;;;;;12.18;22.11;100163.09;4981659;28;20076;-76
2022/04/28 12:16:17;;;;;;;7.50;3.33;;;;;;;12.41;22.33;100154.31;4945996;28;20042;-74
2022/04/28 12:21:34;;;;;;;2.70;2.42;;;;;;;12.58;22.01;100145.06;4978062;28;20436;-74
2022/04/28 12:24:00;;;;;;;6.43;3.30;;;;;;;12.58;21.56;100142.41;4976714;28;20049;-74
2022/04/28 12:26:25;;;;;;;6.68;3.20;;;;;;;12.56;21.61;100147.84;4976209;28;20038;-74
2022/04/28 12:28:51;;;;;;;5.72;3.50;;;;;;;12.50;21.98;100145.63;4981731;28;20045;-75
2022/04/28 12:31:29;;;;;;;5.03;2.83;;;;;;;12.52;21.71;100146.38;4989887;28;20038;-73